sensor_id;sensor_type;location;lat;lon;timestamp;temperature;humidity
35804;DHT22;21924;51.934;7.414;2023-09-07T00:00:40;20.90;99.90
35804;DHT22;21924;51.934;7.414;2023-09-07T00:03:24;20.90;99.90
35804;DHT22;21924;51.934;7.414;2023-09-07T00:06:08;20.80;99.90
35804;DHT22;21924;51.934;7.414;2023-09-07T00:08:53;20.90;99.90
35804;DHT22;21924;51.934;7.414;2023-09-07T00:11:37;20.80;99.90
35804;DHT22;21924;51.934;7.414;2023-09-07T00:14:22;20.80;99.90
35804;DHT22;21924;51.934;7.414;2023-09-07T00:17:06;20.80;99.90
35804;DHT22;21924;51.934;7.414;2023-09-07T00:19:50;20.70;99.90
35804;DHT22;21924;51.934;7.414;2023-09-07T00:22:34;20.70;99.90
35804;DHT22;21924;51.934;7.414;2023-09-07T00:25:18;20.60;99.90
35804;DHT22;21924;51.934;7.414;2023-09-07T00:28:04;20.60;99.90
35804;DHT22;21924;51.934;7.414;2023-09-07T00:30:49;20.50;99.90
35804;DHT22;21924;51.934;7.414;2023-09-07T00:33:33;20.50;99.90
35804;DHT22;21924;51.934;7.414;2023-09-07T00:36:18;20.50;99.90
35804;DHT22;21924;51.934;7.414;2023-09-07T00:39:03;20.50;99.90
35804;DHT22;21924;51.934;7.414;2023-09-07T00:41:47;20.40;99.90
35804;DHT22;21924;51.934;7.414;2023-09-07T00:44:31;20.40;99.90
35804;DHT22;21924;51.934;7.414;2023-09-07T00:47:16;20.40;99.90
35804;DHT22;21924;51.934;7.414;2023-09-07T00:50:03;20.40;99.90
35804;DHT22;21924;51.934;7.414;2023-09-07T00:52:48;20.30;99.90
35804;DHT22;21924;51.934;7.414;2023-09-07T00:55:33;20.30;99.90
35804;DHT22;21924;51.934;7.414;2023-09-07T00:58:19;20.30;99.90
35804;DHT22;21924;51.934;7.414;2023-09-07T01:01:05;20.30;99.90
35804;DHT22;21924;51.934;7.414;2023-09-07T01:03:50;20.20;99.90
35804;DHT22;21924;51.934;7.414;2023-09-07T01:07:02;20.30;99.90
35804;DHT22;21924;51.934;7.414;2023-09-07T01:09:51;20.20;99.90
35804;DHT22;21924;51.934;7.414;2023-09-07T01:12:36;20.20;99.90
35804;DHT22;21924;51.934;7.414;2023-09-07T01:15:20;20.20;99.90
35804;DHT22;21924;51.934;7.414;2023-09-07T01:18:04;20.20;99.90
35804;DHT22;21924;51.934;7.414;2023-09-07T01:20:49;20.10;99.90
35804;DHT22;21924;51.934;7.414;2023-09-07T01:23:41;20.10;99.90
35804;DHT22;21924;51.934;7.414;2023-09-07T01:26:26;20.10;99.90
35804;DHT22;21924;51.934;7.414;2023-09-07T01:29:11;20.00;99.90
35804;DHT22;21924;51.934;7.414;2023-09-07T01:31:56;20.00;99.90
35804;DHT22;21924;51.934;7.414;2023-09-07T01:34:40;20.00;99.90
35804;DHT22;21924;51.934;7.414;2023-09-07T01:37:26;19.90;99.90
35804;DHT22;21924;51.934;7.414;2023-09-07T01:40:10;19.90;99.90
35804;DHT22;21924;51.934;7.414;2023-09-07T01:42:54;19.90;99.90
35804;DHT22;21924;51.934;7.414;2023-09-07T01:45:38;19.90;99.90
35804;DHT22;21924;51.934;7.414;2023-09-07T01:48:22;19.90;99.90
35804;DHT22;21924;51.934;7.414;2023-09-07T01:51:06;19.80;99.90
35804;DHT22;21924;51.934;7.414;2023-09-07T01:53:50;19.80;99.90
35804;DHT22;21924;51.934;7.414;2023-09-07T01:56:35;19.80;99.90
35804;DHT22;21924;51.934;7.414;2023-09-07T01:59:19;19.70;99.90
35804;DHT22;21924;51.934;7.414;2023-09-07T02:02:03;19.70;99.90
35804;DHT22;21924;51.934;7.414;2023-09-07T02:04:47;19.70;99.90
35804;DHT22;21924;51.934;7.414;2023-09-07T02:07:31;19.70;99.90
35804;DHT22;21924;51.934;7.414;2023-09-07T02:10:16;19.70;99.90
35804;DHT22;21924;51.934;7.414;2023-09-07T02:13:00;19.70;99.90
35804;DHT22;21924;51.934;7.414;2023-09-07T02:15:44;19.60;99.90
35804;DHT22;21924;51.934;7.414;2023-09-07T02:18:31;19.60;99.90
35804;DHT22;21924;51.934;7.414;2023-09-07T02:21:15;19.60;99.90
35804;DHT22;21924;51.934;7.414;2023-09-07T02:23:59;19.60;99.90
35804;DHT22;21924;51.934;7.414;2023-09-07T02:26:44;19.50;99.90
35804;DHT22;21924;51.934;7.414;2023-09-07T02:29:31;19.50;99.90
35804;DHT22;21924;51.934;7.414;2023-09-07T02:32:15;19.60;99.90
35804;DHT22;21924;51.934;7.414;2023-09-07T02:34:59;19.50;99.90
35804;DHT22;21924;51.934;7.414;2023-09-07T02:37:43;19.50;99.90
35804;DHT22;21924;51.934;7.414;2023-09-07T02:40:29;19.40;99.90
35804;DHT22;21924;51.934;7.414;2023-09-07T02:43:13;19.40;99.90
35804;DHT22;21924;51.934;7.414;2023-09-07T02:45:57;19.30;99.90
35804;DHT22;21924;51.934;7.414;2023-09-07T02:48:42;19.30;99.90
35804;DHT22;21924;51.934;7.414;2023-09-07T02:51:26;19.30;99.90
35804;DHT22;21924;51.934;7.414;2023-09-07T02:54:10;19.20;99.90
35804;DHT22;21924;51.934;7.414;2023-09-07T02:56:54;19.20;99.90
35804;DHT22;21924;51.934;7.414;2023-09-07T02:59:41;19.10;99.90
35804;DHT22;21924;51.934;7.414;2023-09-07T03:02:27;19.10;99.90
35804;DHT22;21924;51.934;7.414;2023-09-07T03:05:11;19.10;99.90
35804;DHT22;21924;51.934;7.414;2023-09-07T03:07:55;19.10;99.90
35804;DHT22;21924;51.934;7.414;2023-09-07T03:10:39;19.00;99.90
35804;DHT22;21924;51.934;7.414;2023-09-07T03:13:25;19.00;99.90
35804;DHT22;21924;51.934;7.414;2023-09-07T03:16:10;19.00;99.90
35804;DHT22;21924;51.934;7.414;2023-09-07T03:18:54;18.90;99.90
35804;DHT22;21924;51.934;7.414;2023-09-07T03:21:39;18.90;99.90
35804;DHT22;21924;51.934;7.414;2023-09-07T03:24:24;18.90;99.90
35804;DHT22;21924;51.934;7.414;2023-09-07T03:27:11;18.80;99.90
35804;DHT22;21924;51.934;7.414;2023-09-07T03:29:54;18.70;99.90
35804;DHT22;21924;51.934;7.414;2023-09-07T03:32:39;18.70;99.90
35804;DHT22;21924;51.934;7.414;2023-09-07T03:35:23;18.60;99.90
35804;DHT22;21924;51.934;7.414;2023-09-07T03:38:07;18.60;99.90
35804;DHT22;21924;51.934;7.414;2023-09-07T03:40:51;18.60;99.90
35804;DHT22;21924;51.934;7.414;2023-09-07T03:43:35;18.50;99.90
35804;DHT22;21924;51.934;7.414;2023-09-07T03:46:21;18.40;99.90
35804;DHT22;21924;51.934;7.414;2023-09-07T03:49:05;18.40;99.90
35804;DHT22;21924;51.934;7.414;2023-09-07T03:51:49;18.40;99.90
35804;DHT22;21924;51.934;7.414;2023-09-07T03:54:35;18.40;99.90
35804;DHT22;21924;51.934;7.414;2023-09-07T03:57:20;18.30;99.90
35804;DHT22;21924;51.934;7.414;2023-09-07T04:00:04;18.30;99.90
35804;DHT22;21924;51.934;7.414;2023-09-07T04:02:52;18.30;99.90
35804;DHT22;21924;51.934;7.414;2023-09-07T04:05:39;18.30;99.90
35804;DHT22;21924;51.934;7.414;2023-09-07T04:08:25;18.30;99.90
35804;DHT22;21924;51.934;7.414;2023-09-07T04:11:09;18.30;99.90
35804;DHT22;21924;51.934;7.414;2023-09-07T04:13:54;18.30;99.90
35804;DHT22;21924;51.934;7.414;2023-09-07T04:16:38;18.20;99.90
35804;DHT22;21924;51.934;7.414;2023-09-07T04:19:22;18.10;99.90
35804;DHT22;21924;51.934;7.414;2023-09-07T04:22:06;18.20;99.90
35804;DHT22;21924;51.934;7.414;2023-09-07T04:24:52;18.20;99.90
35804;DHT22;21924;51.934;7.414;2023-09-07T04:27:36;18.20;99.90
35804;DHT22;21924;51.934;7.414;2023-09-07T04:30:20;18.30;99.90
35804;DHT22;21924;51.934;7.414;2023-09-07T04:33:06;18.30;99.90
35804;DHT22;21924;51.934;7.414;2023-09-07T04:35:50;18.20;99.90
35804;DHT22;21924;51.934;7.414;2023-09-07T04:38:35;18.20;99.90
35804;DHT22;21924;51.934;7.414;2023-09-07T04:41:20;18.20;99.90
35804;DHT22;21924;51.934;7.414;2023-09-07T04:44:04;18.20;99.90
35804;DHT22;21924;51.934;7.414;2023-09-07T04:46:48;18.10;99.90
35804;DHT22;21924;51.934;7.414;2023-09-07T04:49:33;18.10;99.90
35804;DHT22;21924;51.934;7.414;2023-09-07T04:52:17;18.20;99.90
35804;DHT22;21924;51.934;7.414;2023-09-07T04:55:02;18.20;99.90
35804;DHT22;21924;51.934;7.414;2023-09-07T04:57:47;18.30;99.90
35804;DHT22;21924;51.934;7.414;2023-09-07T05:00:32;18.30;99.90
35804;DHT22;21924;51.934;7.414;2023-09-07T05:03:16;18.30;99.90
35804;DHT22;21924;51.934;7.414;2023-09-07T05:06:04;18.30;99.90
35804;DHT22;21924;51.934;7.414;2023-09-07T05:08:48;18.20;99.90
35804;DHT22;21924;51.934;7.414;2023-09-07T05:11:32;18.20;99.90
35804;DHT22;21924;51.934;7.414;2023-09-07T05:14:18;18.20;99.90
35804;DHT22;21924;51.934;7.414;2023-09-07T05:17:03;18.20;99.90
35804;DHT22;21924;51.934;7.414;2023-09-07T05:19:47;18.20;99.90
35804;DHT22;21924;51.934;7.414;2023-09-07T05:22:31;18.40;99.90
35804;DHT22;21924;51.934;7.414;2023-09-07T05:25:19;18.30;99.90
35804;DHT22;21924;51.934;7.414;2023-09-07T05:28:07;18.30;99.90
35804;DHT22;21924;51.934;7.414;2023-09-07T05:30:53;18.40;99.90
35804;DHT22;21924;51.934;7.414;2023-09-07T05:33:37;18.40;99.90
35804;DHT22;21924;51.934;7.414;2023-09-07T05:36:21;18.40;99.90
35804;DHT22;21924;51.934;7.414;2023-09-07T05:39:06;18.50;99.90
35804;DHT22;21924;51.934;7.414;2023-09-07T05:41:50;18.50;99.90
35804;DHT22;21924;51.934;7.414;2023-09-07T05:44:34;18.60;99.90
35804;DHT22;21924;51.934;7.414;2023-09-07T05:47:18;18.60;99.90
35804;DHT22;21924;51.934;7.414;2023-09-07T05:50:03;18.60;99.90
35804;DHT22;21924;51.934;7.414;2023-09-07T05:52:47;18.60;99.90
35804;DHT22;21924;51.934;7.414;2023-09-07T05:55:32;18.70;99.90
35804;DHT22;21924;51.934;7.414;2023-09-07T05:58:16;18.80;99.90
35804;DHT22;21924;51.934;7.414;2023-09-07T06:01:00;18.80;99.90
35804;DHT22;21924;51.934;7.414;2023-09-07T06:03:45;18.80;99.90
35804;DHT22;21924;51.934;7.414;2023-09-07T06:06:29;19.00;99.90
35804;DHT22;21924;51.934;7.414;2023-09-07T06:09:14;19.10;99.90
35804;DHT22;21924;51.934;7.414;2023-09-07T06:11:58;19.00;99.90
35804;DHT22;21924;51.934;7.414;2023-09-07T06:14:42;19.10;99.90
35804;DHT22;21924;51.934;7.414;2023-09-07T06:17:26;19.10;99.90
35804;DHT22;21924;51.934;7.414;2023-09-07T06:20:10;19.10;99.90
35804;DHT22;21924;51.934;7.414;2023-09-07T06:22:54;19.20;99.90
35804;DHT22;21924;51.934;7.414;2023-09-07T06:25:38;19.20;99.90
35804;DHT22;21924;51.934;7.414;2023-09-07T06:28:23;19.30;99.90
35804;DHT22;21924;51.934;7.414;2023-09-07T06:31:06;19.40;99.90
35804;DHT22;21924;51.934;7.414;2023-09-07T06:33:52;19.40;99.90
35804;DHT22;21924;51.934;7.414;2023-09-07T06:36:36;19.40;99.90
35804;DHT22;21924;51.934;7.414;2023-09-07T06:39:22;19.50;99.90
35804;DHT22;21924;51.934;7.414;2023-09-07T06:42:06;19.50;99.90
35804;DHT22;21924;51.934;7.414;2023-09-07T06:44:51;19.50;99.90
35804;DHT22;21924;51.934;7.414;2023-09-07T06:47:36;19.50;99.90
35804;DHT22;21924;51.934;7.414;2023-09-07T06:50:20;19.70;99.90
35804;DHT22;21924;51.934;7.414;2023-09-07T06:53:05;19.80;99.90
35804;DHT22;21924;51.934;7.414;2023-09-07T06:56:00;19.90;99.90
35804;DHT22;21924;51.934;7.414;2023-09-07T06:58:44;19.90;99.90
35804;DHT22;21924;51.934;7.414;2023-09-07T07:01:29;20.00;99.90
35804;DHT22;21924;51.934;7.414;2023-09-07T07:04:13;20.00;99.90
35804;DHT22;21924;51.934;7.414;2023-09-07T07:06:57;20.00;99.90
35804;DHT22;21924;51.934;7.414;2023-09-07T07:09:41;20.10;99.90
35804;DHT22;21924;51.934;7.414;2023-09-07T07:12:26;20.10;99.90
35804;DHT22;21924;51.934;7.414;2023-09-07T07:15:10;20.10;99.90
35804;DHT22;21924;51.934;7.414;2023-09-07T07:17:55;20.10;99.90
35804;DHT22;21924;51.934;7.414;2023-09-07T07:20:41;20.20;99.90
35804;DHT22;21924;51.934;7.414;2023-09-07T07:23:26;20.20;99.90
35804;DHT22;21924;51.934;7.414;2023-09-07T07:26:11;20.30;99.90
35804;DHT22;21924;51.934;7.414;2023-09-07T07:28:55;20.50;99.90
35804;DHT22;21924;51.934;7.414;2023-09-07T07:31:40;20.60;99.90
35804;DHT22;21924;51.934;7.414;2023-09-07T07:34:24;20.70;99.90
35804;DHT22;21924;51.934;7.414;2023-09-07T07:37:09;20.80;99.90
35804;DHT22;21924;51.934;7.414;2023-09-07T07:39:54;20.80;99.90
35804;DHT22;21924;51.934;7.414;2023-09-07T07:42:38;21.00;99.90
35804;DHT22;21924;51.934;7.414;2023-09-07T07:45:22;21.00;99.90
35804;DHT22;21924;51.934;7.414;2023-09-07T07:48:06;21.10;99.90
35804;DHT22;21924;51.934;7.414;2023-09-07T07:50:51;21.10;99.90
35804;DHT22;21924;51.934;7.414;2023-09-07T07:53:35;21.20;99.90
35804;DHT22;21924;51.934;7.414;2023-09-07T07:56:19;21.20;99.90
35804;DHT22;21924;51.934;7.414;2023-09-07T07:59:03;21.30;99.90
35804;DHT22;21924;51.934;7.414;2023-09-07T08:01:47;21.50;99.90
35804;DHT22;21924;51.934;7.414;2023-09-07T08:04:32;21.60;99.90
35804;DHT22;21924;51.934;7.414;2023-09-07T08:07:17;21.70;99.90
35804;DHT22;21924;51.934;7.414;2023-09-07T08:10:03;21.90;99.90
35804;DHT22;21924;51.934;7.414;2023-09-07T08:12:51;22.00;99.90
35804;DHT22;21924;51.934;7.414;2023-09-07T08:15:35;22.10;99.90
35804;DHT22;21924;51.934;7.414;2023-09-07T08:18:19;22.40;99.90
35804;DHT22;21924;51.934;7.414;2023-09-07T08:21:03;22.40;99.90
35804;DHT22;21924;51.934;7.414;2023-09-07T08:23:50;22.50;99.90
35804;DHT22;21924;51.934;7.414;2023-09-07T08:26:37;22.60;99.90
35804;DHT22;21924;51.934;7.414;2023-09-07T08:29:21;22.70;99.90
35804;DHT22;21924;51.934;7.414;2023-09-07T08:32:08;22.60;99.90
35804;DHT22;21924;51.934;7.414;2023-09-07T08:34:56;22.80;99.90
35804;DHT22;21924;51.934;7.414;2023-09-07T08:37:44;22.90;99.90
35804;DHT22;21924;51.934;7.414;2023-09-07T08:40:28;23.00;99.90
35804;DHT22;21924;51.934;7.414;2023-09-07T08:43:14;23.00;99.90
35804;DHT22;21924;51.934;7.414;2023-09-07T08:46:13;23.00;99.90
35804;DHT22;21924;51.934;7.414;2023-09-07T08:49:00;23.20;99.90
35804;DHT22;21924;51.934;7.414;2023-09-07T08:51:47;23.20;99.90
35804;DHT22;21924;51.934;7.414;2023-09-07T08:54:33;23.30;99.90
35804;DHT22;21924;51.934;7.414;2023-09-07T08:57:18;23.50;99.90
35804;DHT22;21924;51.934;7.414;2023-09-07T09:00:03;23.70;99.90
35804;DHT22;21924;51.934;7.414;2023-09-07T09:02:53;23.70;99.90
35804;DHT22;21924;51.934;7.414;2023-09-07T09:05:39;23.90;99.90
35804;DHT22;21924;51.934;7.414;2023-09-07T09:08:24;24.00;99.90
35804;DHT22;21924;51.934;7.414;2023-09-07T09:11:11;24.10;99.90
35804;DHT22;21924;51.934;7.414;2023-09-07T09:13:55;24.00;99.90
35804;DHT22;21924;51.934;7.414;2023-09-07T09:16:39;24.20;99.90
35804;DHT22;21924;51.934;7.414;2023-09-07T09:19:32;24.40;99.90
35804;DHT22;21924;51.934;7.414;2023-09-07T09:22:17;24.30;99.90
35804;DHT22;21924;51.934;7.414;2023-09-07T09:25:04;24.50;99.90
35804;DHT22;21924;51.934;7.414;2023-09-07T09:27:49;24.70;99.90
35804;DHT22;21924;51.934;7.414;2023-09-07T09:30:33;24.70;99.90
35804;DHT22;21924;51.934;7.414;2023-09-07T09:33:19;24.80;99.90
35804;DHT22;21924;51.934;7.414;2023-09-07T09:36:06;25.00;99.90
35804;DHT22;21924;51.934;7.414;2023-09-07T09:38:51;25.10;99.90
35804;DHT22;21924;51.934;7.414;2023-09-07T09:41:37;25.10;99.90
35804;DHT22;21924;51.934;7.414;2023-09-07T09:44:23;25.20;99.90
35804;DHT22;21924;51.934;7.414;2023-09-07T09:47:13;25.30;99.90
35804;DHT22;21924;51.934;7.414;2023-09-07T09:49:58;25.30;99.90
35804;DHT22;21924;51.934;7.414;2023-09-07T09:52:43;25.30;99.90
35804;DHT22;21924;51.934;7.414;2023-09-07T09:55:30;25.40;99.90
35804;DHT22;21924;51.934;7.414;2023-09-07T09:58:16;25.60;99.90
35804;DHT22;21924;51.934;7.414;2023-09-07T10:01:01;25.70;99.90
35804;DHT22;21924;51.934;7.414;2023-09-07T10:03:50;25.70;99.90
35804;DHT22;21924;51.934;7.414;2023-09-07T10:06:35;25.90;99.90
35804;DHT22;21924;51.934;7.414;2023-09-07T10:09:19;26.00;99.90
35804;DHT22;21924;51.934;7.414;2023-09-07T10:12:05;26.20;99.90
35804;DHT22;21924;51.934;7.414;2023-09-07T10:14:52;26.30;99.90
35804;DHT22;21924;51.934;7.414;2023-09-07T10:17:40;26.40;99.90
35804;DHT22;21924;51.934;7.414;2023-09-07T10:20:24;26.40;99.90
35804;DHT22;21924;51.934;7.414;2023-09-07T10:23:08;26.50;99.90
35804;DHT22;21924;51.934;7.414;2023-09-07T10:25:53;26.60;99.90
35804;DHT22;21924;51.934;7.414;2023-09-07T10:28:40;26.70;99.90
35804;DHT22;21924;51.934;7.414;2023-09-07T10:31:25;26.80;99.90
35804;DHT22;21924;51.934;7.414;2023-09-07T10:34:10;26.90;99.90
35804;DHT22;21924;51.934;7.414;2023-09-07T10:36:56;27.10;99.90
35804;DHT22;21924;51.934;7.414;2023-09-07T10:39:42;27.00;99.90
35804;DHT22;21924;51.934;7.414;2023-09-07T10:42:29;27.10;99.90
35804;DHT22;21924;51.934;7.414;2023-09-07T10:45:15;27.40;99.90
35804;DHT22;21924;51.934;7.414;2023-09-07T10:48:01;27.60;99.90
35804;DHT22;21924;51.934;7.414;2023-09-07T10:50:46;27.40;99.90
35804;DHT22;21924;51.934;7.414;2023-09-07T10:53:32;27.60;99.90
35804;DHT22;21924;51.934;7.414;2023-09-07T10:56:16;27.60;99.90
35804;DHT22;21924;51.934;7.414;2023-09-07T10:59:02;27.60;99.90
35804;DHT22;21924;51.934;7.414;2023-09-07T11:01:47;27.70;99.90
35804;DHT22;21924;51.934;7.414;2023-09-07T11:04:33;27.80;99.90
35804;DHT22;21924;51.934;7.414;2023-09-07T11:07:17;28.10;99.90
35804;DHT22;21924;51.934;7.414;2023-09-07T11:10:01;28.10;99.90
35804;DHT22;21924;51.934;7.414;2023-09-07T11:12:54;28.20;99.90
35804;DHT22;21924;51.934;7.414;2023-09-07T11:15:58;28.20;99.90
35804;DHT22;21924;51.934;7.414;2023-09-07T11:22:33;28.60;99.90
35804;DHT22;21924;51.934;7.414;2023-09-07T11:25:22;28.60;99.90
35804;DHT22;21924;51.934;7.414;2023-09-07T11:28:08;28.50;99.90
35804;DHT22;21924;51.934;7.414;2023-09-07T11:30:53;28.70;99.90
35804;DHT22;21924;51.934;7.414;2023-09-07T11:33:38;28.80;99.90
35804;DHT22;21924;51.934;7.414;2023-09-07T11:36:23;28.80;99.90
35804;DHT22;21924;51.934;7.414;2023-09-07T11:39:09;28.60;99.90
35804;DHT22;21924;51.934;7.414;2023-09-07T11:41:58;28.70;99.90
35804;DHT22;21924;51.934;7.414;2023-09-07T11:45:04;28.90;99.90
35804;DHT22;21924;51.934;7.414;2023-09-07T11:47:49;29.00;99.90
35804;DHT22;21924;51.934;7.414;2023-09-07T11:50:33;29.20;99.90
35804;DHT22;21924;51.934;7.414;2023-09-07T11:53:17;29.30;99.90
35804;DHT22;21924;51.934;7.414;2023-09-07T11:56:01;29.20;99.90
35804;DHT22;21924;51.934;7.414;2023-09-07T11:58:48;29.40;99.90
35804;DHT22;21924;51.934;7.414;2023-09-07T12:01:32;29.50;99.90
35804;DHT22;21924;51.934;7.414;2023-09-07T12:04:18;29.60;99.90
35804;DHT22;21924;51.934;7.414;2023-09-07T12:07:03;29.60;99.90
35804;DHT22;21924;51.934;7.414;2023-09-07T12:09:48;29.70;99.90
35804;DHT22;21924;51.934;7.414;2023-09-07T12:12:32;29.60;99.90
35804;DHT22;21924;51.934;7.414;2023-09-07T12:15:16;29.50;99.90
35804;DHT22;21924;51.934;7.414;2023-09-07T12:18:00;29.40;99.90
35804;DHT22;21924;51.934;7.414;2023-09-07T12:20:44;29.70;99.90
35804;DHT22;21924;51.934;7.414;2023-09-07T12:23:28;29.90;99.90
35804;DHT22;21924;51.934;7.414;2023-09-07T12:26:13;29.70;99.90
35804;DHT22;21924;51.934;7.414;2023-09-07T12:28:58;29.30;99.90
35804;DHT22;21924;51.934;7.414;2023-09-07T12:31:42;29.60;99.90
35804;DHT22;21924;51.934;7.414;2023-09-07T12:34:27;29.70;99.90
35804;DHT22;21924;51.934;7.414;2023-09-07T12:37:11;29.60;99.90
35804;DHT22;21924;51.934;7.414;2023-09-07T12:39:55;29.50;99.90
35804;DHT22;21924;51.934;7.414;2023-09-07T12:42:40;29.80;99.90
35804;DHT22;21924;51.934;7.414;2023-09-07T12:45:26;29.80;99.90
35804;DHT22;21924;51.934;7.414;2023-09-07T12:48:10;29.80;99.90
35804;DHT22;21924;51.934;7.414;2023-09-07T12:50:54;30.00;99.90
35804;DHT22;21924;51.934;7.414;2023-09-07T12:53:39;30.00;99.90
35804;DHT22;21924;51.934;7.414;2023-09-07T12:56:24;30.30;99.90
35804;DHT22;21924;51.934;7.414;2023-09-07T12:59:08;30.00;99.90
35804;DHT22;21924;51.934;7.414;2023-09-07T13:01:52;29.90;99.90
35804;DHT22;21924;51.934;7.414;2023-09-07T13:04:39;30.30;99.90
35804;DHT22;21924;51.934;7.414;2023-09-07T13:07:23;30.30;99.90
35804;DHT22;21924;51.934;7.414;2023-09-07T13:10:09;30.40;99.90
35804;DHT22;21924;51.934;7.414;2023-09-07T13:12:54;30.20;99.90
35804;DHT22;21924;51.934;7.414;2023-09-07T13:15:40;29.80;99.90
35804;DHT22;21924;51.934;7.414;2023-09-07T13:18:24;30.10;99.90
35804;DHT22;21924;51.934;7.414;2023-09-07T13:21:09;30.20;99.90
35804;DHT22;21924;51.934;7.414;2023-09-07T13:23:53;30.20;99.90
35804;DHT22;21924;51.934;7.414;2023-09-07T13:26:37;30.60;99.90
35804;DHT22;21924;51.934;7.414;2023-09-07T13:29:21;30.80;99.90
35804;DHT22;21924;51.934;7.414;2023-09-07T13:32:05;30.90;99.90
35804;DHT22;21924;51.934;7.414;2023-09-07T13:35:21;31.00;99.90
35804;DHT22;21924;51.934;7.414;2023-09-07T13:38:28;30.90;99.90
35804;DHT22;21924;51.934;7.414;2023-09-07T13:41:42;30.40;99.90
35804;DHT22;21924;51.934;7.414;2023-09-07T13:45:26;30.70;99.90
35804;DHT22;21924;51.934;7.414;2023-09-07T13:48:30;30.30;99.90
35804;DHT22;21924;51.934;7.414;2023-09-07T13:51:16;31.00;99.90
35804;DHT22;21924;51.934;7.414;2023-09-07T13:54:01;30.80;99.90
35804;DHT22;21924;51.934;7.414;2023-09-07T13:56:46;30.90;99.90
35804;DHT22;21924;51.934;7.414;2023-09-07T13:59:31;31.00;99.90
35804;DHT22;21924;51.934;7.414;2023-09-07T14:02:18;30.50;99.90
35804;DHT22;21924;51.934;7.414;2023-09-07T14:05:08;30.00;99.90
35804;DHT22;21924;51.934;7.414;2023-09-07T14:07:52;29.60;99.90
35804;DHT22;21924;51.934;7.414;2023-09-07T14:10:38;29.50;99.90
35804;DHT22;21924;51.934;7.414;2023-09-07T14:13:22;29.40;99.90
35804;DHT22;21924;51.934;7.414;2023-09-07T14:16:06;29.50;99.90
35804;DHT22;21924;51.934;7.414;2023-09-07T14:18:51;29.50;99.90
35804;DHT22;21924;51.934;7.414;2023-09-07T14:21:35;29.40;99.90
35804;DHT22;21924;51.934;7.414;2023-09-07T14:24:20;29.30;99.90
35804;DHT22;21924;51.934;7.414;2023-09-07T14:27:04;29.20;99.90
35804;DHT22;21924;51.934;7.414;2023-09-07T14:29:48;29.10;99.90
35804;DHT22;21924;51.934;7.414;2023-09-07T14:32:33;29.10;99.90
35804;DHT22;21924;51.934;7.414;2023-09-07T14:35:17;29.10;99.90
35804;DHT22;21924;51.934;7.414;2023-09-07T14:38:01;29.10;99.90
35804;DHT22;21924;51.934;7.414;2023-09-07T14:40:45;29.10;99.90
35804;DHT22;21924;51.934;7.414;2023-09-07T14:43:32;29.00;99.90
35804;DHT22;21924;51.934;7.414;2023-09-07T14:46:17;29.00;99.90
35804;DHT22;21924;51.934;7.414;2023-09-07T14:49:02;29.00;99.90
35804;DHT22;21924;51.934;7.414;2023-09-07T14:51:47;28.90;99.90
35804;DHT22;21924;51.934;7.414;2023-09-07T14:54:31;28.90;99.90
35804;DHT22;21924;51.934;7.414;2023-09-07T14:57:16;28.80;99.90
35804;DHT22;21924;51.934;7.414;2023-09-07T15:00:02;28.80;99.90
35804;DHT22;21924;51.934;7.414;2023-09-07T15:02:47;28.80;99.90
35804;DHT22;21924;51.934;7.414;2023-09-07T15:05:31;28.70;99.90
35804;DHT22;21924;51.934;7.414;2023-09-07T15:08:15;28.70;99.90
35804;DHT22;21924;51.934;7.414;2023-09-07T15:10:59;28.70;99.90
35804;DHT22;21924;51.934;7.414;2023-09-07T15:13:43;28.70;99.90
35804;DHT22;21924;51.934;7.414;2023-09-07T15:16:29;28.70;99.90
35804;DHT22;21924;51.934;7.414;2023-09-07T15:19:15;28.60;99.90
35804;DHT22;21924;51.934;7.414;2023-09-07T15:21:59;28.60;99.90
35804;DHT22;21924;51.934;7.414;2023-09-07T15:24:43;28.60;99.90
35804;DHT22;21924;51.934;7.414;2023-09-07T15:27:27;28.60;99.90
35804;DHT22;21924;51.934;7.414;2023-09-07T15:30:13;28.50;99.90
35804;DHT22;21924;51.934;7.414;2023-09-07T15:32:57;28.50;99.90
35804;DHT22;21924;51.934;7.414;2023-09-07T15:35:41;28.40;99.90
35804;DHT22;21924;51.934;7.414;2023-09-07T15:38:25;28.30;99.90
35804;DHT22;21924;51.934;7.414;2023-09-07T15:41:12;28.30;99.90
35804;DHT22;21924;51.934;7.414;2023-09-07T15:43:56;28.30;99.90
35804;DHT22;21924;51.934;7.414;2023-09-07T15:46:42;28.30;99.90
35804;DHT22;21924;51.934;7.414;2023-09-07T15:49:28;28.30;99.90
35804;DHT22;21924;51.934;7.414;2023-09-07T15:52:12;28.20;99.90
35804;DHT22;21924;51.934;7.414;2023-09-07T15:54:58;28.20;99.90
35804;DHT22;21924;51.934;7.414;2023-09-07T15:57:44;28.10;99.90
35804;DHT22;21924;51.934;7.414;2023-09-07T16:00:32;28.10;99.90
35804;DHT22;21924;51.934;7.414;2023-09-07T16:03:21;28.40;99.90
35804;DHT22;21924;51.934;7.414;2023-09-07T16:06:06;29.50;99.90
35804;DHT22;21924;51.934;7.414;2023-09-07T16:08:50;30.60;99.90
35804;DHT22;21924;51.934;7.414;2023-09-07T16:11:37;30.90;99.90
35804;DHT22;21924;51.934;7.414;2023-09-07T16:14:22;30.90;99.90
35804;DHT22;21924;51.934;7.414;2023-09-07T16:17:14;30.70;99.90
35804;DHT22;21924;51.934;7.414;2023-09-07T16:20:03;30.10;99.90
35804;DHT22;21924;51.934;7.414;2023-09-07T16:22:49;29.50;99.90
35804;DHT22;21924;51.934;7.414;2023-09-07T16:25:38;28.90;99.90
35804;DHT22;21924;51.934;7.414;2023-09-07T16:28:22;28.50;99.90
35804;DHT22;21924;51.934;7.414;2023-09-07T16:31:06;28.10;99.90
35804;DHT22;21924;51.934;7.414;2023-09-07T16:33:51;28.00;99.90
35804;DHT22;21924;51.934;7.414;2023-09-07T16:36:38;27.70;99.90
35804;DHT22;21924;51.934;7.414;2023-09-07T16:39:57;27.70;99.90
35804;DHT22;21924;51.934;7.414;2023-09-07T16:43:37;27.50;99.90
35804;DHT22;21924;51.934;7.414;2023-09-07T17:02:46;27.00;99.90
35804;DHT22;21924;51.934;7.414;2023-09-07T17:05:59;27.00;99.90
35804;DHT22;21924;51.934;7.414;2023-09-07T17:46:56;25.70;99.90
35804;DHT22;21924;51.934;7.414;2023-09-07T17:49:40;25.60;99.90
35804;DHT22;21924;51.934;7.414;2023-09-07T17:56:26;25.50;99.90
35804;DHT22;21924;51.934;7.414;2023-09-07T18:06:17;25.20;99.90
35804;DHT22;21924;51.934;7.414;2023-09-07T18:27:27;24.80;99.90
35804;DHT22;21924;51.934;7.414;2023-09-07T18:30:12;24.70;99.90
35804;DHT22;21924;51.934;7.414;2023-09-07T18:32:56;24.60;99.90
35804;DHT22;21924;51.934;7.414;2023-09-07T18:36:06;24.50;99.90
35804;DHT22;21924;51.934;7.414;2023-09-07T18:39:16;24.50;99.90
35804;DHT22;21924;51.934;7.414;2023-09-07T18:42:00;24.50;99.90
35804;DHT22;21924;51.934;7.414;2023-09-07T18:45:07;24.50;99.90
35804;DHT22;21924;51.934;7.414;2023-09-07T18:47:52;24.40;99.90
35804;DHT22;21924;51.934;7.414;2023-09-07T18:51:01;24.30;99.90
35804;DHT22;21924;51.934;7.414;2023-09-07T18:53:49;24.20;99.90
35804;DHT22;21924;51.934;7.414;2023-09-07T18:56:40;24.20;99.90